sensor_id;sensor_type;location;lat;lon;timestamp;P1;durP1;ratioP1;P2;durP2;ratioP2
4867;SDS011;2448;48.086;10.862;2023-02-10T00:00:31;5.13;;;3.20;;
4867;SDS011;2448;48.086;10.862;2023-02-10T00:02:56;11.73;;;5.10;;
4867;SDS011;2448;48.086;10.862;2023-02-10T00:05:21;3.17;;;3.00;;
4867;SDS011;2448;48.086;10.862;2023-02-10T00:07:47;5.80;;;3.43;;
4867;SDS011;2448;48.086;10.862;2023-02-10T00:10:12;3.43;;;3.23;;
4867;SDS011;2448;48.086;10.862;2023-02-10T00:12:37;5.70;;;4.83;;
4867;SDS011;2448;48.086;10.862;2023-02-10T00:15:04;8.80;;;4.70;;
4867;SDS011;2448;48.086;10.862;2023-02-10T00:17:29;9.00;;;5.03;;
4867;SDS011;2448;48.086;10.862;2023-02-10T00:19:54;6.53;;;5.17;;
4867;SDS011;2448;48.086;10.862;2023-02-10T00:22:20;5.73;;;4.17;;
4867;SDS011;2448;48.086;10.862;2023-02-10T00:24:45;7.63;;;4.07;;
4867;SDS011;2448;48.086;10.862;2023-02-10T00:27:10;3.77;;;3.57;;
4867;SDS011;2448;48.086;10.862;2023-02-10T00:29:36;8.83;;;5.13;;
4867;SDS011;2448;48.086;10.862;2023-02-10T00:32:01;5.37;;;4.80;;
4867;SDS011;2448;48.086;10.862;2023-02-10T00:34:26;10.50;;;3.27;;
4867;SDS011;2448;48.086;10.862;2023-02-10T00:36:53;8.73;;;4.83;;
4867;SDS011;2448;48.086;10.862;2023-02-10T00:39:18;11.03;;;4.20;;
4867;SDS011;2448;48.086;10.862;2023-02-10T00:41:44;6.57;;;5.47;;
4867;SDS011;2448;48.086;10.862;2023-02-10T00:44:09;2.57;;;2.47;;
4867;SDS011;2448;48.086;10.862;2023-02-10T00:46:35;5.63;;;4.50;;
4867;SDS011;2448;48.086;10.862;2023-02-10T00:49:00;38.83;;;5.57;;
4867;SDS011;2448;48.086;10.862;2023-02-10T00:51:26;3.27;;;3.07;;
4867;SDS011;2448;48.086;10.862;2023-02-10T00:53:51;4.80;;;4.13;;
4867;SDS011;2448;48.086;10.862;2023-02-10T00:56:18;5.83;;;5.13;;
4867;SDS011;2448;48.086;10.862;2023-02-10T00:58:44;3.50;;;3.20;;
4867;SDS011;2448;48.086;10.862;2023-02-10T01:01:10;4.47;;;4.07;;
4867;SDS011;2448;48.086;10.862;2023-02-10T01:03:35;9.27;;;4.43;;
4867;SDS011;2448;48.086;10.862;2023-02-10T01:06:03;5.43;;;3.50;;
4867;SDS011;2448;48.086;10.862;2023-02-10T01:08:28;6.10;;;5.00;;
4867;SDS011;2448;48.086;10.862;2023-02-10T01:11:12;3.40;;;3.10;;
4867;SDS011;2448;48.086;10.862;2023-02-10T01:13:38;4.47;;;4.10;;
4867;SDS011;2448;48.086;10.862;2023-02-10T01:16:04;3.67;;;3.33;;
4867;SDS011;2448;48.086;10.862;2023-02-10T01:18:30;8.37;;;4.80;;
4867;SDS011;2448;48.086;10.862;2023-02-10T01:20:56;5.27;;;4.77;;
4867;SDS011;2448;48.086;10.862;2023-02-10T01:23:21;5.03;;;2.83;;
4867;SDS011;2448;48.086;10.862;2023-02-10T01:25:46;9.20;;;4.60;;
4867;SDS011;2448;48.086;10.862;2023-02-10T01:28:12;4.73;;;4.37;;
4867;SDS011;2448;48.086;10.862;2023-02-10T01:30:37;5.87;;;2.73;;
4867;SDS011;2448;48.086;10.862;2023-02-10T01:33:03;5.70;;;4.50;;
4867;SDS011;2448;48.086;10.862;2023-02-10T01:35:29;8.43;;;2.80;;
4867;SDS011;2448;48.086;10.862;2023-02-10T01:37:54;3.77;;;3.30;;
4867;SDS011;2448;48.086;10.862;2023-02-10T01:40:20;3.50;;;3.20;;
4867;SDS011;2448;48.086;10.862;2023-02-10T01:42:46;4.13;;;3.60;;
4867;SDS011;2448;48.086;10.862;2023-02-10T01:45:31;3.50;;;3.30;;
4867;SDS011;2448;48.086;10.862;2023-02-10T01:47:56;9.27;;;3.77;;
4867;SDS011;2448;48.086;10.862;2023-02-10T01:50:23;5.63;;;3.97;;
4867;SDS011;2448;48.086;10.862;2023-02-10T01:52:52;3.60;;;3.40;;
4867;SDS011;2448;48.086;10.862;2023-02-10T01:55:20;4.00;;;3.73;;
4867;SDS011;2448;48.086;10.862;2023-02-10T01:57:46;2.37;;;2.20;;
4867;SDS011;2448;48.086;10.862;2023-02-10T02:00:13;3.87;;;3.60;;
4867;SDS011;2448;48.086;10.862;2023-02-10T02:02:39;2.60;;;2.40;;
4867;SDS011;2448;48.086;10.862;2023-02-10T02:05:06;8.23;;;2.97;;
4867;SDS011;2448;48.086;10.862;2023-02-10T02:07:33;2.30;;;2.23;;
4867;SDS011;2448;48.086;10.862;2023-02-10T02:09:59;2.47;;;2.30;;
4867;SDS011;2448;48.086;10.862;2023-02-10T02:18:36;3.13;;;2.93;;
4867;SDS011;2448;48.086;10.862;2023-02-10T02:23:17;2.33;;;2.23;;
4867;SDS011;2448;48.086;10.862;2023-02-10T02:33:40;2.37;;;2.10;;
4867;SDS011;2448;48.086;10.862;2023-02-10T02:36:11;3.23;;;3.00;;
4867;SDS011;2448;48.086;10.862;2023-02-10T02:38:38;6.83;;;3.30;;
4867;SDS011;2448;48.086;10.862;2023-02-10T02:41:04;2.93;;;2.83;;
4867;SDS011;2448;48.086;10.862;2023-02-10T02:43:30;3.33;;;3.03;;
4867;SDS011;2448;48.086;10.862;2023-02-10T02:46:00;4.20;;;3.60;;
4867;SDS011;2448;48.086;10.862;2023-02-10T02:56:13;2.63;;;2.43;;
4867;SDS011;2448;48.086;10.862;2023-02-10T02:58:50;2.17;;;1.67;;
4867;SDS011;2448;48.086;10.862;2023-02-10T03:01:23;2.47;;;2.33;;
4867;SDS011;2448;48.086;10.862;2023-02-10T03:03:51;5.90;;;3.27;;
4867;SDS011;2448;48.086;10.862;2023-02-10T03:06:17;2.13;;;2.03;;
4867;SDS011;2448;48.086;10.862;2023-02-10T03:08:42;2.40;;;2.23;;
4867;SDS011;2448;48.086;10.862;2023-02-10T03:11:08;1.93;;;1.77;;
4867;SDS011;2448;48.086;10.862;2023-02-10T03:13:33;2.80;;;2.70;;
4867;SDS011;2448;48.086;10.862;2023-02-10T03:15:58;2.13;;;1.70;;
4867;SDS011;2448;48.086;10.862;2023-02-10T03:18:24;3.53;;;3.30;;
4867;SDS011;2448;48.086;10.862;2023-02-10T03:20:50;3.37;;;3.07;;
4867;SDS011;2448;48.086;10.862;2023-02-10T03:23:15;1.30;;;1.30;;
4867;SDS011;2448;48.086;10.862;2023-02-10T03:25:40;2.60;;;2.50;;
4867;SDS011;2448;48.086;10.862;2023-02-10T03:28:08;3.10;;;2.90;;
4867;SDS011;2448;48.086;10.862;2023-02-10T03:30:34;2.30;;;2.10;;
4867;SDS011;2448;48.086;10.862;2023-02-10T03:32:59;1.80;;;1.70;;
4867;SDS011;2448;48.086;10.862;2023-02-10T03:35:24;2.87;;;2.67;;
4867;SDS011;2448;48.086;10.862;2023-02-10T03:37:50;3.17;;;2.67;;
4867;SDS011;2448;48.086;10.862;2023-02-10T03:40:15;2.77;;;2.50;;
4867;SDS011;2448;48.086;10.862;2023-02-10T03:42:40;3.07;;;2.83;;
4867;SDS011;2448;48.086;10.862;2023-02-10T03:45:06;2.73;;;2.63;;
4867;SDS011;2448;48.086;10.862;2023-02-10T03:47:31;4.10;;;2.50;;
4867;SDS011;2448;48.086;10.862;2023-02-10T03:49:57;2.57;;;2.47;;
4867;SDS011;2448;48.086;10.862;2023-02-10T03:52:22;2.40;;;2.30;;
4867;SDS011;2448;48.086;10.862;2023-02-10T03:54:48;2.80;;;2.50;;
4867;SDS011;2448;48.086;10.862;2023-02-10T03:57:13;3.60;;;2.27;;
4867;SDS011;2448;48.086;10.862;2023-02-10T03:59:38;1.83;;;1.73;;
4867;SDS011;2448;48.086;10.862;2023-02-10T04:02:04;1.97;;;1.87;;
4867;SDS011;2448;48.086;10.862;2023-02-10T04:04:29;2.03;;;1.77;;
4867;SDS011;2448;48.086;10.862;2023-02-10T04:06:55;2.47;;;1.70;;
4867;SDS011;2448;48.086;10.862;2023-02-10T04:09:20;2.23;;;2.13;;
4867;SDS011;2448;48.086;10.862;2023-02-10T04:11:46;1.83;;;1.70;;
4867;SDS011;2448;48.086;10.862;2023-02-10T04:14:11;3.00;;;2.23;;
4867;SDS011;2448;48.086;10.862;2023-02-10T04:16:36;6.10;;;2.93;;
4867;SDS011;2448;48.086;10.862;2023-02-10T04:19:02;4.20;;;2.20;;
4867;SDS011;2448;48.086;10.862;2023-02-10T04:21:28;2.27;;;2.17;;
4867;SDS011;2448;48.086;10.862;2023-02-10T04:23:53;3.17;;;1.90;;
4867;SDS011;2448;48.086;10.862;2023-02-10T04:26:18;3.70;;;2.63;;
4867;SDS011;2448;48.086;10.862;2023-02-10T04:28:44;8.27;;;4.10;;
4867;SDS011;2448;48.086;10.862;2023-02-10T04:31:09;3.00;;;2.20;;
4867;SDS011;2448;48.086;10.862;2023-02-10T04:33:35;3.20;;;3.00;;
4867;SDS011;2448;48.086;10.862;2023-02-10T04:36:00;3.20;;;2.30;;
4867;SDS011;2448;48.086;10.862;2023-02-10T04:38:28;3.63;;;1.83;;
4867;SDS011;2448;48.086;10.862;2023-02-10T04:40:54;2.60;;;1.83;;
4867;SDS011;2448;48.086;10.862;2023-02-10T04:43:19;2.50;;;2.30;;
4867;SDS011;2448;48.086;10.862;2023-02-10T04:45:44;2.97;;;2.67;;
4867;SDS011;2448;48.086;10.862;2023-02-10T04:48:10;5.40;;;2.23;;
4867;SDS011;2448;48.086;10.862;2023-02-10T04:50:36;2.27;;;2.17;;
4867;SDS011;2448;48.086;10.862;2023-02-10T04:53:01;2.10;;;2.00;;
4867;SDS011;2448;48.086;10.862;2023-02-10T04:55:27;2.43;;;2.23;;
4867;SDS011;2448;48.086;10.862;2023-02-10T04:57:52;2.83;;;2.63;;
4867;SDS011;2448;48.086;10.862;2023-02-10T05:00:18;2.00;;;1.83;;
4867;SDS011;2448;48.086;10.862;2023-02-10T05:02:43;0.97;;;0.97;;
4867;SDS011;2448;48.086;10.862;2023-02-10T05:05:09;2.60;;;2.20;;
4867;SDS011;2448;48.086;10.862;2023-02-10T05:07:34;1.73;;;1.63;;
4867;SDS011;2448;48.086;10.862;2023-02-10T05:10:00;3.93;;;2.30;;
4867;SDS011;2448;48.086;10.862;2023-02-10T05:12:25;2.20;;;2.10;;
4867;SDS011;2448;48.086;10.862;2023-02-10T05:14:51;2.37;;;2.30;;
4867;SDS011;2448;48.086;10.862;2023-02-10T05:17:16;3.00;;;2.70;;
4867;SDS011;2448;48.086;10.862;2023-02-10T05:19:42;2.70;;;2.50;;
4867;SDS011;2448;48.086;10.862;2023-02-10T05:22:07;2.97;;;2.47;;
4867;SDS011;2448;48.086;10.862;2023-02-10T05:24:32;1.83;;;1.83;;
4867;SDS011;2448;48.086;10.862;2023-02-10T05:26:58;2.73;;;2.53;;
4867;SDS011;2448;48.086;10.862;2023-02-10T05:29:23;1.50;;;1.50;;
4867;SDS011;2448;48.086;10.862;2023-02-10T05:31:48;1.73;;;1.73;;
4867;SDS011;2448;48.086;10.862;2023-02-10T05:34:14;2.90;;;2.70;;
4867;SDS011;2448;48.086;10.862;2023-02-10T05:36:39;1.90;;;1.90;;
4867;SDS011;2448;48.086;10.862;2023-02-10T05:39:05;3.20;;;2.17;;
4867;SDS011;2448;48.086;10.862;2023-02-10T05:41:49;3.30;;;2.40;;
4867;SDS011;2448;48.086;10.862;2023-02-10T05:44:14;6.23;;;2.47;;
4867;SDS011;2448;48.086;10.862;2023-02-10T05:46:39;1.70;;;1.60;;
4867;SDS011;2448;48.086;10.862;2023-02-10T05:49:05;2.27;;;1.60;;
4867;SDS011;2448;48.086;10.862;2023-02-10T05:51:30;3.00;;;2.77;;
4867;SDS011;2448;48.086;10.862;2023-02-10T05:53:55;1.90;;;1.73;;
4867;SDS011;2448;48.086;10.862;2023-02-10T05:56:21;1.83;;;1.83;;
4867;SDS011;2448;48.086;10.862;2023-02-10T05:58:46;2.03;;;1.93;;
4867;SDS011;2448;48.086;10.862;2023-02-10T06:01:12;2.90;;;2.20;;
4867;SDS011;2448;48.086;10.862;2023-02-10T06:03:37;2.07;;;1.97;;
4867;SDS011;2448;48.086;10.862;2023-02-10T06:06:03;3.53;;;3.07;;
4867;SDS011;2448;48.086;10.862;2023-02-10T06:08:28;2.73;;;2.57;;
4867;SDS011;2448;48.086;10.862;2023-02-10T06:10:54;11.10;;;2.97;;
4867;SDS011;2448;48.086;10.862;2023-02-10T06:13:19;4.27;;;3.47;;
4867;SDS011;2448;48.086;10.862;2023-02-10T06:15:45;2.80;;;2.67;;
4867;SDS011;2448;48.086;10.862;2023-02-10T06:18:10;4.07;;;2.50;;
4867;SDS011;2448;48.086;10.862;2023-02-10T06:20:36;2.00;;;1.93;;
4867;SDS011;2448;48.086;10.862;2023-02-10T06:23:01;2.30;;;2.20;;
4867;SDS011;2448;48.086;10.862;2023-02-10T06:25:27;2.43;;;2.23;;
4867;SDS011;2448;48.086;10.862;2023-02-10T06:27:53;4.57;;;1.63;;
4867;SDS011;2448;48.086;10.862;2023-02-10T06:30:18;3.67;;;3.33;;
4867;SDS011;2448;48.086;10.862;2023-02-10T06:32:43;8.83;;;3.13;;
4867;SDS011;2448;48.086;10.862;2023-02-10T06:35:09;1.83;;;1.73;;
4867;SDS011;2448;48.086;10.862;2023-02-10T06:37:34;2.30;;;1.73;;
4867;SDS011;2448;48.086;10.862;2023-02-10T06:40:01;3.13;;;2.80;;
4867;SDS011;2448;48.086;10.862;2023-02-10T06:42:27;2.43;;;2.43;;
4867;SDS011;2448;48.086;10.862;2023-02-10T06:44:52;2.63;;;2.47;;
4867;SDS011;2448;48.086;10.862;2023-02-10T06:47:17;3.10;;;2.47;;
4867;SDS011;2448;48.086;10.862;2023-02-10T06:49:43;3.70;;;3.50;;
4867;SDS011;2448;48.086;10.862;2023-02-10T06:52:08;3.33;;;2.93;;
4867;SDS011;2448;48.086;10.862;2023-02-10T06:54:33;4.47;;;3.90;;
4867;SDS011;2448;48.086;10.862;2023-02-10T06:56:59;4.80;;;3.90;;
4867;SDS011;2448;48.086;10.862;2023-02-10T06:59:24;3.40;;;2.73;;
4867;SDS011;2448;48.086;10.862;2023-02-10T07:01:49;2.40;;;2.30;;
4867;SDS011;2448;48.086;10.862;2023-02-10T07:04:15;7.40;;;4.67;;
4867;SDS011;2448;48.086;10.862;2023-02-10T07:06:40;3.30;;;3.10;;
4867;SDS011;2448;48.086;10.862;2023-02-10T07:09:06;2.67;;;2.47;;
4867;SDS011;2448;48.086;10.862;2023-02-10T07:11:31;6.10;;;3.00;;
4867;SDS011;2448;48.086;10.862;2023-02-10T07:13:57;4.53;;;2.97;;
4867;SDS011;2448;48.086;10.862;2023-02-10T07:16:22;3.60;;;3.00;;
4867;SDS011;2448;48.086;10.862;2023-02-10T07:18:48;4.20;;;3.73;;
4867;SDS011;2448;48.086;10.862;2023-02-10T07:21:13;3.37;;;3.17;;
4867;SDS011;2448;48.086;10.862;2023-02-10T07:23:39;3.70;;;3.30;;
4867;SDS011;2448;48.086;10.862;2023-02-10T07:26:04;4.60;;;3.73;;
4867;SDS011;2448;48.086;10.862;2023-02-10T07:28:30;4.73;;;3.60;;
4867;SDS011;2448;48.086;10.862;2023-02-10T07:30:55;7.73;;;4.07;;
4867;SDS011;2448;48.086;10.862;2023-02-10T07:33:21;4.30;;;4.00;;
4867;SDS011;2448;48.086;10.862;2023-02-10T07:35:46;3.90;;;3.50;;
4867;SDS011;2448;48.086;10.862;2023-02-10T07:38:11;7.87;;;4.50;;
4867;SDS011;2448;48.086;10.862;2023-02-10T07:40:37;10.33;;;5.40;;
4867;SDS011;2448;48.086;10.862;2023-02-10T07:43:02;4.00;;;3.60;;
4867;SDS011;2448;48.086;10.862;2023-02-10T07:45:36;5.33;;;4.83;;
4867;SDS011;2448;48.086;10.862;2023-02-10T07:48:02;8.97;;;4.83;;
4867;SDS011;2448;48.086;10.862;2023-02-10T07:50:27;10.33;;;5.60;;
4867;SDS011;2448;48.086;10.862;2023-02-10T07:52:52;12.00;;;5.70;;
4867;SDS011;2448;48.086;10.862;2023-02-10T07:55:18;10.00;;;6.33;;
4867;SDS011;2448;48.086;10.862;2023-02-10T07:57:43;8.10;;;5.70;;
4867;SDS011;2448;48.086;10.862;2023-02-10T08:00:09;9.30;;;5.37;;
4867;SDS011;2448;48.086;10.862;2023-02-10T08:02:40;8.50;;;6.20;;
4867;SDS011;2448;48.086;10.862;2023-02-10T08:05:06;10.87;;;6.10;;
4867;SDS011;2448;48.086;10.862;2023-02-10T08:07:31;10.90;;;6.70;;
4867;SDS011;2448;48.086;10.862;2023-02-10T08:09:57;10.93;;;6.60;;
4867;SDS011;2448;48.086;10.862;2023-02-10T08:12:22;10.83;;;6.00;;
4867;SDS011;2448;48.086;10.862;2023-02-10T08:14:47;12.07;;;7.03;;
4867;SDS011;2448;48.086;10.862;2023-02-10T08:17:13;9.07;;;6.30;;
4867;SDS011;2448;48.086;10.862;2023-02-10T08:19:38;13.20;;;7.10;;
4867;SDS011;2448;48.086;10.862;2023-02-10T08:22:04;15.43;;;7.03;;
4867;SDS011;2448;48.086;10.862;2023-02-10T08:24:29;11.53;;;7.00;;
4867;SDS011;2448;48.086;10.862;2023-02-10T08:26:55;13.63;;;6.60;;
4867;SDS011;2448;48.086;10.862;2023-02-10T08:29:20;10.37;;;6.17;;
4867;SDS011;2448;48.086;10.862;2023-02-10T08:31:48;8.27;;;5.97;;
4867;SDS011;2448;48.086;10.862;2023-02-10T08:34:15;13.30;;;5.93;;
4867;SDS011;2448;48.086;10.862;2023-02-10T08:36:41;11.30;;;6.37;;
4867;SDS011;2448;48.086;10.862;2023-02-10T08:39:07;7.90;;;5.93;;
4867;SDS011;2448;48.086;10.862;2023-02-10T08:41:33;11.73;;;6.20;;
4867;SDS011;2448;48.086;10.862;2023-02-10T08:43:58;10.37;;;5.33;;
4867;SDS011;2448;48.086;10.862;2023-02-10T08:46:23;9.10;;;5.57;;
4867;SDS011;2448;48.086;10.862;2023-02-10T08:48:49;6.23;;;4.47;;
4867;SDS011;2448;48.086;10.862;2023-02-10T08:51:15;7.17;;;5.37;;
4867;SDS011;2448;48.086;10.862;2023-02-10T08:53:40;12.20;;;5.30;;
4867;SDS011;2448;48.086;10.862;2023-02-10T08:56:07;7.23;;;5.27;;
4867;SDS011;2448;48.086;10.862;2023-02-10T08:58:33;8.20;;;4.70;;
4867;SDS011;2448;48.086;10.862;2023-02-10T09:00:58;8.20;;;5.10;;
4867;SDS011;2448;48.086;10.862;2023-02-10T09:03:24;7.10;;;4.30;;
4867;SDS011;2448;48.086;10.862;2023-02-10T09:05:49;5.70;;;4.10;;
4867;SDS011;2448;48.086;10.862;2023-02-10T09:08:16;13.80;;;5.43;;
4867;SDS011;2448;48.086;10.862;2023-02-10T09:10:42;8.43;;;4.47;;
4867;SDS011;2448;48.086;10.862;2023-02-10T09:13:07;13.67;;;4.47;;
4867;SDS011;2448;48.086;10.862;2023-02-10T09:15:36;10.70;;;5.03;;
4867;SDS011;2448;48.086;10.862;2023-02-10T09:18:02;8.27;;;4.87;;
4867;SDS011;2448;48.086;10.862;2023-02-10T09:20:27;11.47;;;5.50;;
4867;SDS011;2448;48.086;10.862;2023-02-10T09:22:53;6.90;;;5.30;;
4867;SDS011;2448;48.086;10.862;2023-02-10T09:25:18;8.37;;;5.13;;
4867;SDS011;2448;48.086;10.862;2023-02-10T09:27:43;9.57;;;5.90;;
4867;SDS011;2448;48.086;10.862;2023-02-10T09:30:09;10.33;;;5.73;;
4867;SDS011;2448;48.086;10.862;2023-02-10T09:32:34;15.10;;;6.30;;
4867;SDS011;2448;48.086;10.862;2023-02-10T09:35:00;12.13;;;6.27;;
4867;SDS011;2448;48.086;10.862;2023-02-10T09:37:25;10.63;;;6.03;;
4867;SDS011;2448;48.086;10.862;2023-02-10T09:39:50;13.20;;;6.13;;
4867;SDS011;2448;48.086;10.862;2023-02-10T09:44:51;12.60;;;7.53;;
4867;SDS011;2448;48.086;10.862;2023-02-10T09:54:55;26.20;;;8.00;;
4867;SDS011;2448;48.086;10.862;2023-02-10T09:57:22;18.77;;;6.57;;
4867;SDS011;2448;48.086;10.862;2023-02-10T09:59:52;15.00;;;7.70;;
4867;SDS011;2448;48.086;10.862;2023-02-10T10:02:30;9.20;;;5.47;;
4867;SDS011;2448;48.086;10.862;2023-02-10T10:04:56;12.07;;;7.17;;
4867;SDS011;2448;48.086;10.862;2023-02-10T10:07:27;13.30;;;8.00;;
4867;SDS011;2448;48.086;10.862;2023-02-10T10:12:39;10.07;;;6.70;;
4867;SDS011;2448;48.086;10.862;2023-02-10T10:15:06;13.10;;;7.50;;
4867;SDS011;2448;48.086;10.862;2023-02-10T10:30:31;14.10;;;7.20;;
4867;SDS011;2448;48.086;10.862;2023-02-10T10:33:02;13.60;;;8.00;;
4867;SDS011;2448;48.086;10.862;2023-02-10T10:35:38;12.90;;;6.67;;
4867;SDS011;2448;48.086;10.862;2023-02-10T10:41:04;15.33;;;7.60;;
4867;SDS011;2448;48.086;10.862;2023-02-10T10:43:31;18.77;;;8.13;;
4867;SDS011;2448;48.086;10.862;2023-02-10T10:45:59;14.80;;;8.00;;
4867;SDS011;2448;48.086;10.862;2023-02-10T10:48:28;17.40;;;9.37;;
4867;SDS011;2448;48.086;10.862;2023-02-10T10:50:57;17.27;;;8.00;;
4867;SDS011;2448;48.086;10.862;2023-02-10T10:56:01;19.67;;;8.80;;
4867;SDS011;2448;48.086;10.862;2023-02-10T10:58:28;16.17;;;8.40;;
4867;SDS011;2448;48.086;10.862;2023-02-10T11:00:56;18.83;;;8.50;;
4867;SDS011;2448;48.086;10.862;2023-02-10T11:03:21;19.13;;;8.43;;
4867;SDS011;2448;48.086;10.862;2023-02-10T11:08:31;16.47;;;8.77;;
4867;SDS011;2448;48.086;10.862;2023-02-10T11:10:58;15.97;;;8.10;;
4867;SDS011;2448;48.086;10.862;2023-02-10T11:13:28;11.53;;;7.57;;
4867;SDS011;2448;48.086;10.862;2023-02-10T11:16:07;16.93;;;9.37;;
4867;SDS011;2448;48.086;10.862;2023-02-10T11:18:33;16.57;;;8.53;;
4867;SDS011;2448;48.086;10.862;2023-02-10T11:21:00;14.10;;;8.27;;
4867;SDS011;2448;48.086;10.862;2023-02-10T11:23:26;16.93;;;8.57;;
4867;SDS011;2448;48.086;10.862;2023-02-10T11:26:05;20.10;;;8.63;;
4867;SDS011;2448;48.086;10.862;2023-02-10T11:28:34;14.53;;;8.37;;
4867;SDS011;2448;48.086;10.862;2023-02-10T11:31:02;14.27;;;7.77;;
4867;SDS011;2448;48.086;10.862;2023-02-10T11:33:29;15.10;;;8.07;;
4867;SDS011;2448;48.086;10.862;2023-02-10T11:36:08;14.67;;;7.93;;
4867;SDS011;2448;48.086;10.862;2023-02-10T11:38:37;21.53;;;7.20;;
4867;SDS011;2448;48.086;10.862;2023-02-10T11:41:07;17.17;;;7.60;;
4867;SDS011;2448;48.086;10.862;2023-02-10T11:43:42;18.80;;;8.53;;
4867;SDS011;2448;48.086;10.862;2023-02-10T11:46:17;12.13;;;7.10;;
4867;SDS011;2448;48.086;10.862;2023-02-10T11:48:51;11.53;;;6.43;;
4867;SDS011;2448;48.086;10.862;2023-02-10T11:51:16;14.50;;;7.33;;
4867;SDS011;2448;48.086;10.862;2023-02-10T11:53:44;17.70;;;7.20;;
4867;SDS011;2448;48.086;10.862;2023-02-10T11:56:23;22.73;;;6.90;;
4867;SDS011;2448;48.086;10.862;2023-02-10T12:01:57;11.37;;;6.37;;
4867;SDS011;2448;48.086;10.862;2023-02-10T12:04:28;12.77;;;6.17;;
4867;SDS011;2448;48.086;10.862;2023-02-10T12:12:08;11.70;;;7.43;;
4867;SDS011;2448;48.086;10.862;2023-02-10T12:17:23;12.80;;;6.90;;
4867;SDS011;2448;48.086;10.862;2023-02-10T12:30:07;12.83;;;7.97;;
4867;SDS011;2448;48.086;10.862;2023-02-10T12:32:38;16.90;;;8.50;;
4867;SDS011;2448;48.086;10.862;2023-02-10T12:35:52;14.40;;;7.53;;
4867;SDS011;2448;48.086;10.862;2023-02-10T12:38:07;10.07;;;6.27;;
4867;SDS011;2448;48.086;10.862;2023-02-10T12:51:33;13.83;;;7.57;;
4867;SDS011;2448;48.086;10.862;2023-02-10T12:54:02;14.50;;;8.27;;
4867;SDS011;2448;48.086;10.862;2023-02-10T12:58:55;15.40;;;8.23;;
4867;SDS011;2448;48.086;10.862;2023-02-10T13:01:26;16.93;;;9.10;;
4867;SDS011;2448;48.086;10.862;2023-02-10T13:03:56;9.87;;;5.97;;
4867;SDS011;2448;48.086;10.862;2023-02-10T13:06:36;15.90;;;8.10;;
4867;SDS011;2448;48.086;10.862;2023-02-10T13:13:54;14.70;;;7.60;;
4867;SDS011;2448;48.086;10.862;2023-02-10T13:16:22;24.80;;;9.20;;
4867;SDS011;2448;48.086;10.862;2023-02-10T13:18:53;16.63;;;8.07;;
4867;SDS011;2448;48.086;10.862;2023-02-10T13:34:27;13.07;;;8.00;;
4867;SDS011;2448;48.086;10.862;2023-02-10T13:36:56;12.70;;;7.20;;
4867;SDS011;2448;48.086;10.862;2023-02-10T13:39:23;13.80;;;7.63;;
4867;SDS011;2448;48.086;10.862;2023-02-10T13:41:51;17.70;;;7.90;;
4867;SDS011;2448;48.086;10.862;2023-02-10T13:44:29;16.33;;;8.07;;
4867;SDS011;2448;48.086;10.862;2023-02-10T13:46:56;16.13;;;7.67;;
4867;SDS011;2448;48.086;10.862;2023-02-10T13:49:23;11.30;;;6.87;;
4867;SDS011;2448;48.086;10.862;2023-02-10T13:51:49;22.57;;;8.23;;
4867;SDS011;2448;48.086;10.862;2023-02-10T13:54:24;12.30;;;7.43;;
4867;SDS011;2448;48.086;10.862;2023-02-10T13:56:54;15.47;;;8.00;;
4867;SDS011;2448;48.086;10.862;2023-02-10T14:01:49;11.00;;;7.47;;
4867;SDS011;2448;48.086;10.862;2023-02-10T14:06:44;16.90;;;7.80;;
4867;SDS011;2448;48.086;10.862;2023-02-10T14:09:21;11.37;;;7.20;;
4867;SDS011;2448;48.086;10.862;2023-02-10T14:11:47;14.93;;;8.30;;
4867;SDS011;2448;48.086;10.862;2023-02-10T14:16:45;19.80;;;8.10;;
4867;SDS011;2448;48.086;10.862;2023-02-10T14:19:28;10.00;;;7.10;;
4867;SDS011;2448;48.086;10.862;2023-02-10T14:21:55;14.80;;;7.30;;
4867;SDS011;2448;48.086;10.862;2023-02-10T14:24:22;17.00;;;8.10;;
4867;SDS011;2448;48.086;10.862;2023-02-10T14:26:49;16.47;;;7.37;;
4867;SDS011;2448;48.086;10.862;2023-02-10T14:29:16;16.37;;;7.40;;
4867;SDS011;2448;48.086;10.862;2023-02-10T14:31:42;10.60;;;6.80;;
4867;SDS011;2448;48.086;10.862;2023-02-10T14:34:22;16.50;;;7.70;;
4867;SDS011;2448;48.086;10.862;2023-02-10T14:36:55;15.17;;;8.00;;
4867;SDS011;2448;48.086;10.862;2023-02-10T14:39:21;14.27;;;6.80;;
4867;SDS011;2448;48.086;10.862;2023-02-10T14:41:47;15.03;;;8.33;;
4867;SDS011;2448;48.086;10.862;2023-02-10T14:44:23;13.20;;;7.70;;
4867;SDS011;2448;48.086;10.862;2023-02-10T14:46:50;14.03;;;7.27;;
4867;SDS011;2448;48.086;10.862;2023-02-10T14:49:18;12.33;;;7.50;;
4867;SDS011;2448;48.086;10.862;2023-02-10T14:51:44;15.43;;;7.67;;
4867;SDS011;2448;48.086;10.862;2023-02-10T14:56:39;16.00;;;8.00;;
4867;SDS011;2448;48.086;10.862;2023-02-10T14:59:04;15.83;;;7.70;;
4867;SDS011;2448;48.086;10.862;2023-02-10T15:01:30;11.10;;;6.53;;
4867;SDS011;2448;48.086;10.862;2023-02-10T15:03:57;12.67;;;7.67;;
4867;SDS011;2448;48.086;10.862;2023-02-10T15:06:24;14.07;;;8.20;;
4867;SDS011;2448;48.086;10.862;2023-02-10T15:08:52;12.37;;;6.83;;
4867;SDS011;2448;48.086;10.862;2023-02-10T15:11:19;11.30;;;7.07;;
4867;SDS011;2448;48.086;10.862;2023-02-10T15:14:05;10.93;;;6.03;;
4867;SDS011;2448;48.086;10.862;2023-02-10T15:16:34;12.67;;;6.83;;
4867;SDS011;2448;48.086;10.862;2023-02-10T15:18:59;18.80;;;6.77;;
4867;SDS011;2448;48.086;10.862;2023-02-10T15:21:35;10.10;;;6.57;;
4867;SDS011;2448;48.086;10.862;2023-02-10T15:24:00;11.30;;;6.10;;
4867;SDS011;2448;48.086;10.862;2023-02-10T15:26:27;12.00;;;6.40;;
4867;SDS011;2448;48.086;10.862;2023-02-10T15:29:01;7.87;;;6.00;;
4867;SDS011;2448;48.086;10.862;2023-02-10T15:31:27;10.07;;;6.47;;
4867;SDS011;2448;48.086;10.862;2023-02-10T15:34:00;14.27;;;6.67;;
4867;SDS011;2448;48.086;10.862;2023-02-10T15:41:38;11.57;;;7.50;;
4867;SDS011;2448;48.086;10.862;2023-02-10T15:44:26;15.67;;;6.80;;
4867;SDS011;2448;48.086;10.862;2023-02-10T15:47:35;11.40;;;7.63;;
4867;SDS011;2448;48.086;10.862;2023-02-10T15:49:38;13.97;;;6.50;;
4867;SDS011;2448;48.086;10.862;2023-02-10T15:52:03;10.87;;;6.87;;
4867;SDS011;2448;48.086;10.862;2023-02-10T15:54:29;11.87;;;6.43;;
4867;SDS011;2448;48.086;10.862;2023-02-10T15:59:23;11.03;;;6.93;;
4867;SDS011;2448;48.086;10.862;2023-02-10T16:01:59;10.87;;;6.80;;
4867;SDS011;2448;48.086;10.862;2023-02-10T16:04:25;13.07;;;7.47;;
4867;SDS011;2448;48.086;10.862;2023-02-10T16:06:52;14.77;;;7.20;;
4867;SDS011;2448;48.086;10.862;2023-02-10T16:09:18;18.10;;;8.60;;
4867;SDS011;2448;48.086;10.862;2023-02-10T16:11:43;15.77;;;8.17;;
4867;SDS011;2448;48.086;10.862;2023-02-10T16:14:09;13.70;;;7.40;;
4867;SDS011;2448;48.086;10.862;2023-02-10T16:16:36;43.93;;;9.47;;
4867;SDS011;2448;48.086;10.862;2023-02-10T16:19:03;15.93;;;8.80;;
4867;SDS011;2448;48.086;10.862;2023-02-10T16:21:29;21.77;;;8.30;;
4867;SDS011;2448;48.086;10.862;2023-02-10T16:23:54;15.70;;;8.40;;
4867;SDS011;2448;48.086;10.862;2023-02-10T16:26:22;16.63;;;8.20;;
4867;SDS011;2448;48.086;10.862;2023-02-10T16:28:48;16.80;;;8.23;;
4867;SDS011;2448;48.086;10.862;2023-02-10T16:31:13;17.83;;;9.10;;
4867;SDS011;2448;48.086;10.862;2023-02-10T16:33:39;36.53;;;15.73;;
4867;SDS011;2448;48.086;10.862;2023-02-10T16:36:06;19.90;;;10.20;;
4867;SDS011;2448;48.086;10.862;2023-02-10T16:38:32;13.60;;;8.13;;
4867;SDS011;2448;48.086;10.862;2023-02-10T16:40:59;11.37;;;7.87;;
4867;SDS011;2448;48.086;10.862;2023-02-10T16:43:24;16.80;;;9.47;;
4867;SDS011;2448;48.086;10.862;2023-02-10T16:45:49;30.77;;;12.40;;
4867;SDS011;2448;48.086;10.862;2023-02-10T16:48:15;39.30;;;17.23;;
4867;SDS011;2448;48.086;10.862;2023-02-10T16:50:41;35.77;;;12.33;;
4867;SDS011;2448;48.086;10.862;2023-02-10T16:53:07;32.70;;;12.33;;
4867;SDS011;2448;48.086;10.862;2023-02-10T16:55:33;24.30;;;11.40;;
4867;SDS011;2448;48.086;10.862;2023-02-10T16:57:59;30.60;;;11.97;;
4867;SDS011;2448;48.086;10.862;2023-02-10T17:00:25;20.13;;;11.20;;
4867;SDS011;2448;48.086;10.862;2023-02-10T17:02:51;20.73;;;9.50;;